Time;durP1;ratioP1;P1;durP2;ratioP2;P2;SDS_P1;SDS_P2;PMS_P1;PMS_P2;Temp;Humidity;BMP_temperature;BMP_pressure;BME280_temperature;BME280_humidity;BME280_pressure;Samples;Min_cycle;Max_cycle;Signal;HPM_P1;HPM_P2
2022/06/09 00:01:08;;;;;;;6.03;5.20;;;14.90;91.40;;;;;;5004663;28;20038;-48
2022/06/09 00:03:55;;;;;;;8.73;5.32;;;14.90;91.40;;;;;;4986438;28;20044;-48
2022/06/09 00:06:24;;;;;;;7.53;6.47;;;14.80;91.40;;;;;;4969166;28;20038;-49
2022/06/09 00:08:55;;;;;;;9.40;5.70;;;14.80;91.50;;;;;;4994595;28;20101;-48
2022/06/09 00:11:24;;;;;;;6.82;5.60;;;14.80;91.50;;;;;;4974178;28;20049;-47
2022/06/09 00:13:52;;;;;;;8.32;6.60;;;14.80;91.50;;;;;;4981638;28;20049;-48
2022/06/09 00:16:19;;;;;;;7.65;6.05;;;14.80;91.40;;;;;;4971672;28;20046;-48
2022/06/09 00:18:49;;;;;;;7.88;5.50;;;14.80;91.40;;;;;;4988354;28;20096;-47
2022/06/09 00:21:16;;;;;;;7.45;6.70;;;14.80;91.40;;;;;;4991145;28;20042;-48
2022/06/09 00:23:41;;;;;;;9.30;5.70;;;14.70;91.40;;;;;;4987320;28;20443;-47
2022/06/09 00:26:11;;;;;;;8.20;6.07;;;14.80;91.40;;;;;;4971889;28;20042;-49
2022/06/09 00:28:37;;;;;;;8.70;6.07;;;14.70;91.40;;;;;;5027850;28;20045;-49
2022/06/09 00:31:04;;;;;;;9.40;7.22;;;14.70;91.40;;;;;;5028932;28;20033;-52
2022/06/09 00:33:33;;;;;;;8.68;6.20;;;14.70;91.40;;;;;;5029351;28;20040;-51
2022/06/09 00:36:00;;;;;;;13.85;6.38;;;14.70;91.50;;;;;;5028962;28;20057;-49
2022/06/09 00:38:27;;;;;;;8.73;7.00;;;14.70;91.50;;;;;;5029321;28;20405;-47
2022/06/09 00:41:03;;;;;;;7.68;6.88;;;14.70;91.50;;;;;;5014527;28;20046;-48
2022/06/09 00:43:30;;;;;;;13.95;6.90;;;14.70;91.50;;;;;;5029418;28;20039;-48
2022/06/09 00:46:21;;;;;;;7.10;6.25;;;14.70;91.50;;;;;;5028592;28;20544;-47
2022/06/09 00:49:14;;;;;;;8.02;7.22;;;14.70;91.50;;;;;;5029452;28;20065;-48
2022/06/09 00:51:47;;;;;;;11.25;7.75;;;14.70;91.50;;;;;;5041885;28;20033;-47
2022/06/09 00:54:28;;;;;;;7.72;6.95;;;14.70;91.60;;;;;;5029011;28;20029;-48
2022/06/09 00:57:20;;;;;;;9.48;8.18;;;14.70;91.50;;;;;;5027439;28;20033;-48
2022/06/09 00:59:51;;;;;;;9.48;8.38;;;14.70;91.50;;;;;;5029870;28;20138;-50
2022/06/09 01:02:21;;;;;;;10.57;8.45;;;14.70;91.60;;;;;;5020197;28;20423;-58
2022/06/09 01:04:50;;;;;;;10.68;8.90;;;14.80;91.60;;;;;;5012910;28;20030;-53
2022/06/09 01:07:26;;;;;;;10.98;9.00;;;14.80;91.70;;;;;;5028695;28;20025;-52
2022/06/09 01:09:53;;;;;;;11.35;8.00;;;14.70;91.70;;;;;;5029074;28;20504;-50
2022/06/09 01:12:39;;;;;;;11.30;10.20;;;14.80;91.70;;;;;;5011121;28;20034;-50
2022/06/09 01:15:18;;;;;;;12.60;11.18;;;14.80;91.70;;;;;;5028737;28;20740;-51
2022/06/09 01:18:25;;;;;;;10.32;9.32;;;14.70;91.60;;;;;;5028817;28;20047;-47
2022/06/09 01:21:34;;;;;;;10.63;9.40;;;14.70;91.70;;;;;;5020384;28;20025;-47
2022/06/09 01:24:37;;;;;;;11.50;10.27;;;14.80;91.70;;;;;;4991745;28;20062;-47
2022/06/09 01:27:22;;;;;;;11.90;10.40;;;14.70;91.70;;;;;;5017905;28;20018;-47
2022/06/09 01:30:05;;;;;;;14.35;12.00;;;14.80;91.70;;;;;;5005361;28;20033;-47
2022/06/09 01:32:38;;;;;;;11.73;10.27;;;14.70;91.70;;;;;;5039244;28;20036;-48
2022/06/09 01:35:27;;;;;;;13.27;11.98;;;14.70;91.70;;;;;;5032787;28;20025;-47
2022/06/09 01:37:57;;;;;;;14.98;13.25;;;14.80;91.70;;;;;;5036927;28;20041;-47
2022/06/09 01:40:25;;;;;;;13.32;12.02;;;14.70;91.70;;;;;;5018924;28;20029;-48
2022/06/09 01:42:55;;;;;;;12.95;11.65;;;14.80;91.80;;;;;;5031235;28;20105;-47
2022/06/09 01:45:26;;;;;;;;;;;14.80;91.80;;;;;;5022596;28;20052;-46
2022/06/09 01:48:05;;;;;;;12.68;11.30;;;14.70;91.80;;;;;;5014753;28;19913;-46
2022/06/09 01:50:45;;;;;;;14.05;12.63;;;14.70;91.80;;;;;;5014167;28;20029;-47
2022/06/09 01:53:29;;;;;;;13.68;12.27;;;14.80;91.80;;;;;;5031386;28;20039;-46
2022/06/09 01:56:04;;;;;;;14.40;13.00;;;14.80;91.80;;;;;;5031963;28;20049;-46
2022/06/09 01:58:38;;;;;;;14.23;12.55;;;14.80;91.80;;;;;;5031422;28;20366;-46
2022/06/09 02:01:06;;;;;;;13.55;12.13;;;14.80;91.80;;;;;;5048934;28;20458;-46
2022/06/09 02:03:39;;;;;;;14.55;13.00;;;14.70;91.70;;;;;;5043937;28;20046;-46
2022/06/09 02:06:08;;;;;;;13.98;12.65;;;14.80;91.80;;;;;;5017707;28;20025;-46
2022/06/09 02:08:35;;;;;;;15.30;13.80;;;14.80;91.80;;;;;;5040995;28;20040;-46
2022/06/09 02:11:10;;;;;;;14.00;12.60;;;14.80;91.90;;;;;;5037581;28;20025;-46
2022/06/09 02:14:02;;;;;;;15.13;12.35;;;14.80;91.90;;;;;;5020625;28;20029;-46
2022/06/09 02:16:29;;;;;;;12.70;11.40;;;14.80;91.80;;;;;;5027807;28;20056;-46
2022/06/09 02:18:57;;;;;;;14.40;12.90;;;14.70;91.80;;;;;;5031136;28;20077;-45
2022/06/09 02:21:32;;;;;;;13.77;12.38;;;14.70;91.80;;;;;;5032051;28;20032;-46
2022/06/09 02:23:58;;;;;;;14.02;12.63;;;14.70;91.90;;;;;;5031064;28;20055;-46
2022/06/09 02:26:24;;;;;;;12.88;11.50;;;14.80;91.90;;;;;;5031301;28;20335;-46
2022/06/09 02:28:55;;;;;;;14.82;13.32;;;14.70;91.80;;;;;;5023228;28;20036;-45
2022/06/09 02:31:23;;;;;;;14.02;12.55;;;14.70;91.80;;;;;;5038500;28;20033;-45
2022/06/09 02:33:50;;;;;;;15.32;13.90;;;14.70;91.90;;;;;;5030872;28;20041;-45
2022/06/09 02:36:18;;;;;;;14.60;13.10;;;14.70;91.90;;;;;;5046584;28;20062;-45
2022/06/09 02:38:45;;;;;;;15.10;13.45;;;14.70;91.90;;;;;;5004576;28;20091;-48
2022/06/09 02:41:14;;;;;;;14.18;12.68;;;14.60;91.90;;;;;;5040440;28;20037;-46
2022/06/09 02:43:42;;;;;;;15.07;13.65;;;14.60;91.90;;;;;;5035284;28;20060;-45
2022/06/09 02:46:08;;;;;;;14.38;12.88;;;14.70;91.90;;;;;;5033313;28;20044;-45
2022/06/09 02:48:35;;;;;;;14.98;13.43;;;14.70;92.00;;;;;;5013071;28;20021;-45
2022/06/09 02:51:40;;;;;;;18.10;15.07;;;14.70;92.00;;;;;;5013190;28;20478;-47
2022/06/09 02:54:12;;;;;;;20.13;18.23;;;14.60;92.00;;;;;;5030538;28;20033;-45
2022/06/09 02:56:41;;;;;;;20.73;18.60;;;14.70;92.00;;;;;;5030684;28;20029;-45
2022/06/09 02:59:08;;;;;;;22.67;20.33;;;14.70;92.00;;;;;;5038283;28;20029;-45
2022/06/09 03:01:36;;;;;;;19.73;17.92;;;14.70;92.00;;;;;;5036110;28;20029;-45
2022/06/09 03:04:02;;;;;;;21.35;19.48;;;14.70;92.00;;;;;;5030660;28;20044;-45
2022/06/09 03:06:29;;;;;;;19.17;17.38;;;14.70;92.00;;;;;;5038231;28;20111;-45
2022/06/09 03:08:56;;;;;;;16.95;15.10;;;14.70;91.90;;;;;;5050786;28;20025;-45
2022/06/09 03:11:23;;;;;;;18.10;16.27;;;14.70;92.00;;;;;;5036269;28;20045;-45
2022/06/09 03:13:49;;;;;;;19.05;17.33;;;14.70;92.00;;;;;;5037031;28;20025;-45
2022/06/09 03:16:17;;;;;;;17.30;15.60;;;14.70;92.00;;;;;;5047345;28;20033;-45
2022/06/09 03:18:47;;;;;;;17.75;15.80;;;14.70;92.00;;;;;;5040296;28;20025;-48
2022/06/09 03:21:14;;;;;;;;;;;14.70;92.00;;;;;;5030938;28;20417;-45
2022/06/09 03:23:42;;;;;;;15.55;14.05;;;14.70;92.00;;;;;;5029585;28;20363;-44
2022/06/09 03:26:09;;;;;;;14.00;12.70;;;14.70;92.10;;;;;;5029689;28;20029;-45
2022/06/09 03:28:36;;;;;;;14.05;12.45;;;14.70;92.10;;;;;;5012507;28;20076;-46
2022/06/09 03:31:02;;;;;;;14.27;12.98;;;14.70;92.10;;;;;;5030076;28;20045;-44
2022/06/09 03:33:28;;;;;;;20.13;13.23;;;14.60;92.00;;;;;;5029616;28;20033;-45
2022/06/09 03:35:54;;;;;;;14.85;12.88;;;14.70;92.10;;;;;;5029078;28;20057;-44
2022/06/09 03:38:21;;;;;;;14.60;12.25;;;14.70;92.10;;;;;;5030205;28;20029;-44
2022/06/09 03:40:48;;;;;;;14.73;13.20;;;14.60;92.20;;;;;;5048163;28;20040;-44
2022/06/09 03:43:15;;;;;;;15.60;14.07;;;14.60;92.10;;;;;;5045919;28;20109;-44
2022/06/09 03:45:42;;;;;;;14.70;13.30;;;14.60;92.00;;;;;;5011651;28;20083;-43
2022/06/09 03:48:09;;;;;;;14.90;13.27;;;14.60;92.00;;;;;;5028927;28;20100;-44
2022/06/09 03:50:36;;;;;;;14.10;12.65;;;14.60;92.00;;;;;;5027570;28;20033;-44
2022/06/09 03:53:04;;;;;;;14.57;13.10;;;14.60;92.10;;;;;;5011911;28;20037;-43
2022/06/09 03:55:32;;;;;;;13.85;12.50;;;14.60;92.10;;;;;;5045985;28;20037;-43
2022/06/09 03:57:59;;;;;;;15.30;13.10;;;14.60;92.10;;;;;;5031371;28;20066;-44
2022/06/09 04:00:29;;;;;;;15.35;13.85;;;14.70;92.10;;;;;;5029099;28;20818;-43
2022/06/09 04:02:59;;;;;;;14.70;13.30;;;14.60;92.00;;;;;;5028718;28;20048;-43
2022/06/09 04:05:27;;;;;;;15.40;13.68;;;14.60;92.10;;;;;;5032214;28;20043;-42
2022/06/09 04:07:54;;;;;;;15.52;13.95;;;14.60;92.00;;;;;;5029359;28;20020;-43
2022/06/09 04:10:24;;;;;;;15.60;14.15;;;14.60;92.00;;;;;;5043954;28;20032;-44
2022/06/09 04:12:54;;;;;;;13.88;12.15;;;14.60;92.10;;;;;;5029579;28;20021;-42
2022/06/09 04:15:21;;;;;;;13.52;11.73;;;14.60;92.10;;;;;;5014380;28;20092;-43
2022/06/09 04:17:48;;;;;;;14.05;12.65;;;14.60;92.10;;;;;;5037935;28;20021;-43
2022/06/09 04:20:17;;;;;;;15.98;13.02;;;14.60;92.20;;;;;;5029850;28;20048;-41
2022/06/09 04:22:44;;;;;;;13.55;12.23;;;14.60;92.20;;;;;;5027892;28;20192;-43
2022/06/09 04:25:11;;;;;;;14.45;11.95;;;14.70;92.20;;;;;;5040297;28;20032;-41
2022/06/09 04:27:41;;;;;;;13.98;12.52;;;14.70;92.10;;;;;;5028722;28;20106;-43
2022/06/09 04:30:08;;;;;;;14.52;13.18;;;14.70;92.10;;;;;;5010135;28;20030;-42
2022/06/09 04:32:35;;;;;;;15.23;11.48;;;14.80;92.00;;;;;;5011179;28;20466;-42
2022/06/09 04:35:03;;;;;;;13.15;11.85;;;14.80;92.00;;;;;;5029080;28;20026;-43
2022/06/09 04:40:16;;;;;;;11.80;10.60;;;14.80;91.90;;;;;;5041352;28;20099;-41
2022/06/09 04:42:42;;;;;;;12.07;10.82;;;14.90;91.80;;;;;;5041807;28;20030;-42
2022/06/09 04:45:09;;;;;;;12.20;11.00;;;14.80;91.70;;;;;;5028810;28;20461;-40
2022/06/09 04:47:36;;;;;;;12.35;11.07;;;14.90;91.70;;;;;;5043756;28;20041;-41
2022/06/09 04:50:03;;;;;;;15.40;13.80;;;14.90;91.70;;;;;;5011638;28;20335;-40
2022/06/09 04:52:29;;;;;;;13.82;12.43;;;14.80;91.70;;;;;;5043458;28;20037;-40
2022/06/09 04:54:56;;;;;;;14.35;12.52;;;14.80;91.80;;;;;;5028551;28;20029;-40
2022/06/09 04:57:23;;;;;;;15.07;13.57;;;14.90;91.90;;;;;;5027891;28;20045;-40
2022/06/09 04:59:49;;;;;;;16.27;13.75;;;14.90;91.80;;;;;;5029964;28;20028;-41
2022/06/09 05:02:17;;;;;;;15.88;14.20;;;14.90;91.80;;;;;;5039268;28;20079;-40
2022/06/09 05:04:43;;;;;;;17.42;15.50;;;14.90;91.90;;;;;;5028807;28;20022;-40
2022/06/09 05:07:12;;;;;;;17.83;15.18;;;14.90;91.70;;;;;;5025865;28;20469;-40
2022/06/09 05:09:40;;;;;;;20.17;16.63;;;14.90;91.80;;;;;;5012876;28;20053;-41
2022/06/09 05:12:07;;;;;;;19.10;15.10;;;14.90;91.80;;;;;;5048383;28;20060;-42
2022/06/09 05:14:34;;;;;;;25.33;19.05;;;15.00;91.90;;;;;;5032928;28;20489;-41
2022/06/09 05:17:00;;;;;;;21.20;18.92;;;15.00;91.80;;;;;;5038535;28;20488;-40
2022/06/09 05:19:27;;;;;;;22.90;20.60;;;15.00;91.90;;;;;;5040689;28;20116;-43
2022/06/09 05:21:54;;;;;;;23.30;19.67;;;15.00;91.80;;;;;;5032843;28;20461;-40
2022/06/09 05:24:21;;;;;;;23.80;19.45;;;15.10;91.80;;;;;;5053062;28;20426;-40
2022/06/09 05:26:48;;;;;;;26.25;19.85;;;15.10;91.70;;;;;;5019001;28;20034;-40
2022/06/09 05:29:17;;;;;;;22.75;18.38;;;15.10;91.80;;;;;;5032537;28;20421;-40
2022/06/09 05:31:44;;;;;;;23.33;20.00;;;15.00;91.70;;;;;;5032081;28;20036;-41
2022/06/09 05:34:10;;;;;;;20.90;18.70;;;15.00;91.60;;;;;;5032708;28;20030;-40
2022/06/09 05:36:37;;;;;;;22.95;19.48;;;15.00;91.60;;;;;;5031718;28;20100;-41
2022/06/09 05:44:52;;;;;;;21.23;18.90;;;15.00;91.80;;;;;;5012969;28;20088;-40
2022/06/09 05:47:21;;;;;;;18.42;16.48;;;15.00;91.80;;;;;;5032466;28;20029;-39
2022/06/09 05:49:49;;;;;;;20.05;16.88;;;15.00;91.70;;;;;;5033729;28;20021;-40
2022/06/09 05:52:24;;;;;;;22.42;18.38;;;15.00;91.60;;;;;;5031239;28;20110;-40
2022/06/09 05:54:51;;;;;;;21.27;17.52;;;14.90;91.60;;;;;;5045340;28;20476;-41
2022/06/09 05:57:19;;;;;;;18.52;16.13;;;14.90;91.70;;;;;;5031585;28;20435;-40
2022/06/09 05:59:46;;;;;;;18.55;15.75;;;14.90;91.60;;;;;;5037101;28;20025;-40
2022/06/09 06:02:13;;;;;;;19.52;17.02;;;14.90;91.60;;;;;;5049490;28;20122;-41
2022/06/09 06:04:39;;;;;;;20.35;16.88;;;14.90;91.60;;;;;;5029579;28;20025;-39
2022/06/09 06:07:07;;;;;;;18.80;16.15;;;14.90;91.60;;;;;;5020152;28;20022;-40
2022/06/09 06:09:33;;;;;;;18.70;15.98;;;15.00;91.70;;;;;;5032057;28;20413;-40
2022/06/09 06:12:03;;;;;;;19.00;16.15;;;15.00;91.60;;;;;;5049322;28;20388;-39
2022/06/09 06:14:31;;;;;;;19.48;17.13;;;15.00;91.50;;;;;;5051442;28;20111;-40
2022/06/09 06:17:01;;;;;;;17.85;15.43;;;15.00;91.40;;;;;;5040779;28;20350;-39
2022/06/09 06:19:28;;;;;;;17.92;15.77;;;15.00;91.40;;;;;;5022781;28;20045;-39
2022/06/09 06:21:55;;;;;;;19.10;15.63;;;15.00;91.40;;;;;;5040057;28;20626;-39
2022/06/09 06:24:24;;;;;;;20.08;16.55;;;15.10;91.60;;;;;;5044589;28;20017;-40
2022/06/09 06:26:51;;;;;;;15.30;13.70;;;15.20;91.50;;;;;;5048324;28;20021;-40
2022/06/09 06:29:22;;;;;;;16.20;14.45;;;15.30;91.50;;;;;;5033916;28;20369;-39
2022/06/09 06:31:51;;;;;;;15.10;13.50;;;15.20;91.10;;;;;;5034544;28;20096;-39
2022/06/09 06:34:18;;;;;;;17.00;14.00;;;15.20;91.10;;;;;;5031451;28;20430;-39
2022/06/09 06:36:45;;;;;;;15.25;13.57;;;15.20;91.00;;;;;;5030646;28;20057;-39
2022/06/09 06:39:15;;;;;;;15.75;13.30;;;15.20;90.90;;;;;;5027662;28;20039;-39
2022/06/09 06:41:42;;;;;;;13.75;11.85;;;15.20;91.00;;;;;;5043894;28;20029;-42
2022/06/09 06:44:10;;;;;;;13.02;10.95;;;15.10;91.10;;;;;;5031339;28;20445;-39
2022/06/09 06:46:37;;;;;;;12.50;10.82;;;15.10;91.00;;;;;;5030799;28;20105;-39
2022/06/09 06:49:04;;;;;;;10.00;8.80;;;15.10;90.90;;;;;;5031022;28;20028;-39
2022/06/09 06:51:32;;;;;;;12.77;10.48;;;15.00;90.70;;;;;;5046650;28;20035;-39
2022/06/09 06:53:59;;;;;;;13.98;10.60;;;14.90;90.60;;;;;;5049377;28;20381;-39
2022/06/09 06:56:26;;;;;;;9.93;8.85;;;14.90;90.90;;;;;;5031464;28;20029;-39
2022/06/09 06:58:53;;;;;;;11.80;9.18;;;14.90;91.10;;;;;;5030922;28;20053;-38
2022/06/09 07:01:20;;;;;;;12.30;11.05;;;15.10;91.30;;;;;;5039716;28;20049;-38
2022/06/09 07:03:50;;;;;;;12.23;10.48;;;15.20;91.10;;;;;;5033280;28;20025;-39
2022/06/09 07:06:19;;;;;;;10.88;9.27;;;15.30;91.10;;;;;;5045027;28;20454;-39
2022/06/09 07:08:45;;;;;;;11.73;9.55;;;15.50;91.00;;;;;;5036392;28;20057;-39
2022/06/09 07:11:13;;;;;;;9.73;8.23;;;15.50;90.40;;;;;;5030181;28;20045;-39
2022/06/09 07:13:40;;;;;;;11.70;9.18;;;15.40;90.00;;;;;;5035099;28;20043;-39
2022/06/09 07:16:07;;;;;;;10.18;8.88;;;15.50;90.10;;;;;;5030645;28;20041;-40
2022/06/09 07:18:35;;;;;;;10.50;8.80;;;15.50;90.10;;;;;;5026259;28;20027;-38
2022/06/09 07:21:03;;;;;;;11.43;8.95;;;15.60;90.00;;;;;;5048119;28;20034;-39
2022/06/09 07:23:30;;;;;;;8.55;7.68;;;15.50;89.60;;;;;;5014583;28;20041;-39
2022/06/09 07:26:01;;;;;;;9.80;7.95;;;15.60;89.70;;;;;;5047349;28;20033;-39
2022/06/09 07:28:30;;;;;;;8.93;8.02;;;15.70;89.50;;;;;;5050370;28;20036;-39
2022/06/09 07:30:59;;;;;;;10.30;9.23;;;15.70;89.30;;;;;;5031890;28;20037;-38
2022/06/09 07:33:29;;;;;;;9.80;8.80;;;15.80;89.40;;;;;;5041629;28;20264;-39
2022/06/09 07:36:04;;;;;;;9.20;8.30;;;16.00;89.40;;;;;;5029380;28;20521;-39
2022/06/09 07:38:31;;;;;;;9.38;8.43;;;16.20;89.00;;;;;;5033666;28;20040;-39
2022/06/09 07:40:58;;;;;;;8.93;7.70;;;16.10;88.50;;;;;;5048978;28;20048;-41
2022/06/09 07:43:25;;;;;;;10.30;9.13;;;15.80;88.00;;;;;;5032680;28;20022;-42
2022/06/09 07:45:52;;;;;;;9.82;8.82;;;15.90;88.40;;;;;;5040552;28;20454;-40
2022/06/09 07:48:20;;;;;;;9.10;8.15;;;15.80;88.20;;;;;;5023420;28;20433;-40
2022/06/09 07:50:49;;;;;;;7.97;7.13;;;15.80;88.10;;;;;;5049463;28;20453;-41
2022/06/09 07:53:20;;;;;;;10.15;9.15;;;15.70;88.10;;;;;;5028570;28;20032;-41
2022/06/09 07:55:50;;;;;;;9.13;8.10;;;15.80;88.20;;;;;;5033226;28;20029;-39
2022/06/09 07:58:18;;;;;;;;;;;15.80;88.10;;;;;;5022930;28;20458;-40
2022/06/09 08:00:46;;;;;;;10.13;8.15;;;15.80;88.00;;;;;;5029841;28;19913;-40
2022/06/09 08:03:23;;;;;;;8.95;8.05;;;15.90;88.20;;;;;;5030690;28;20025;-42
2022/06/09 08:05:50;;;;;;;9.05;8.15;;;15.90;88.00;;;;;;5029587;28;20021;-41
2022/06/09 08:08:19;;;;;;;9.05;8.15;;;15.90;87.60;;;;;;5040152;28;20086;-40
2022/06/09 08:10:47;;;;;;;10.13;8.55;;;16.00;87.80;;;;;;5037404;28;20037;-40
2022/06/09 08:13:17;;;;;;;9.38;8.48;;;16.40;87.90;;;;;;5030941;28;20048;-45
2022/06/09 08:15:47;;;;;;;;;;;16.50;87.20;;;;;;5012508;28;20461;-40
2022/06/09 08:18:14;;;;;;;10.48;8.35;;;16.70;86.50;;;;;;5028966;28;20326;-41
2022/06/09 08:20:43;;;;;;;9.05;8.00;;;16.80;85.50;;;;;;5029199;28;20461;-41
2022/06/09 08:23:17;;;;;;;8.32;7.18;;;17.00;85.70;;;;;;5040439;28;20402;-40
2022/06/09 08:25:45;;;;;;;11.05;6.97;;;16.90;84.30;;;;;;5032559;28;20457;-40
2022/06/09 08:28:13;;;;;;;8.80;7.90;;;16.70;84.30;;;;;;5014440;28;20120;-42
2022/06/09 08:30:40;;;;;;;9.20;7.72;;;16.70;85.10;;;;;;5029369;28;20143;-43
2022/06/09 08:33:07;;;;;;;8.73;7.82;;;16.60;85.10;;;;;;5032381;28;20025;-40
2022/06/09 08:35:34;;;;;;;8.88;6.20;;;16.40;85.00;;;;;;5037523;28;20365;-40
2022/06/09 08:38:02;;;;;;;8.75;5.97;;;16.30;85.00;;;;;;5028526;28;20025;-40
2022/06/09 08:41:01;;;;;;;7.28;6.55;;;16.20;85.60;;;;;;5029537;28;20533;-41
2022/06/09 08:43:47;;;;;;;7.47;6.70;;;16.30;86.30;;;;;;5020949;28;20132;-43
2022/06/09 08:46:30;;;;;;;6.78;6.00;;;16.50;86.60;;;;;;5052779;28;20365;-40
2022/06/09 08:49:02;;;;;;;7.55;6.82;;;16.70;85.80;;;;;;5044579;28;20025;-40
2022/06/09 08:51:49;;;;;;;4.97;4.13;;;16.90;85.20;;;;;;5033094;28;20382;-40
2022/06/09 08:54:32;;;;;;;3.58;2.83;;;16.70;82.90;;;;;;5018190;28;20041;-41
2022/06/09 08:57:03;;;;;;;3.97;3.17;;;16.90;83.60;;;;;;5032808;28;20438;-41
2022/06/09 08:59:37;;;;;;;4.60;4.10;;;17.00;82.90;;;;;;5015419;28;20048;-40
2022/06/09 09:02:27;;;;;;;6.57;4.78;;;17.10;82.60;;;;;;5032279;28;20029;-42
2022/06/09 09:05:29;;;;;;;6.50;4.20;;;17.20;81.90;;;;;;5025084;28;20038;-40
2022/06/09 09:07:59;;;;;;;4.90;4.15;;;17.40;81.90;;;;;;5008749;28;20021;-42
2022/06/09 09:10:50;;;;;;;5.57;3.78;;;17.20;81.30;;;;;;5048157;28;20068;-42
2022/06/09 09:13:53;;;;;;;5.03;4.13;;;17.10;81.80;;;;;;5035923;28;20029;-42
2022/06/09 09:16:28;;;;;;;4.60;3.80;;;17.20;82.30;;;;;;5014232;28;20057;-42
2022/06/09 09:19:17;;;;;;;5.22;4.65;;;17.00;82.10;;;;;;5045541;28;20021;-41
2022/06/09 09:22:10;;;;;;;5.68;5.15;;;17.20;82.30;;;;;;5032569;28;20025;-41
2022/06/09 09:24:59;;;;;;;7.47;5.85;;;17.50;82.40;;;;;;5014888;28;20033;-43
2022/06/09 09:28:01;;;;;;;6.63;5.93;;;17.50;81.70;;;;;;5014780;28;20033;-41
2022/06/09 09:30:32;;;;;;;7.88;6.13;;;17.50;82.20;;;;;;5032191;28;20507;-41
2022/06/09 09:32:58;;;;;;;8.05;7.25;;;17.50;82.20;;;;;;5030977;28;20029;-41
2022/06/09 09:35:28;;;;;;;7.45;6.75;;;17.90;81.80;;;;;;5031973;28;20458;-42
2022/06/09 09:37:56;;;;;;;;;;;18.20;81.00;;;;;;5018410;28;20436;-43
2022/06/09 09:40:31;;;;;;;6.93;6.18;;;18.50;79.70;;;;;;5028647;28;19936;-41
2022/06/09 09:43:24;;;;;;;7.30;6.00;;;18.60;78.80;;;;;;5032453;28;20488;-43
2022/06/09 09:45:54;;;;;;;7.63;6.70;;;18.70;78.10;;;;;;5024944;28;20045;-41
2022/06/09 09:48:24;;;;;;;6.53;5.05;;;18.60;77.80;;;;;;5032418;28;20033;-42
2022/06/09 09:51:13;;;;;;;5.80;5.20;;;18.60;78.30;;;;;;5035080;28;20040;-42
2022/06/09 09:53:47;;;;;;;7.65;6.90;;;18.50;78.20;;;;;;5032767;28;20121;-41
2022/06/09 09:56:15;;;;;;;7.20;6.07;;;18.60;78.10;;;;;;5030945;28;20029;-45
2022/06/09 09:58:56;;;;;;;7.80;5.75;;;18.40;78.50;;;;;;5030880;28;20036;-42
2022/06/09 10:08:35;;;;;;;6.18;4.18;;;18.70;78.50;;;;;;5030924;28;20040;-42
2022/06/09 10:10:27;;;;;;;9.10;5.63;;;20.40;75.50;;;;;;5031932;28;20503;-42
2022/06/09 10:12:56;;;;;;;5.70;5.15;;;20.10;73.20;;;;;;4994969;28;20489;-42
2022/06/09 10:15:26;;;;;;;5.32;4.82;;;20.20;74.40;;;;;;5026868;28;20094;-43
2022/06/09 10:18:28;;;;;;;4.15;2.53;;;20.40;74.20;;;;;;5031405;28;20021;-42
2022/06/09 10:21:10;;;;;;;4.80;2.70;;;20.60;70.90;;;;;;4967843;28;20451;-42
2022/06/09 10:23:56;;;;;;;5.80;2.47;;;21.10;69.60;;;;;;4975745;28;20066;-43
2022/06/09 10:26:39;;;;;;;4.20;2.35;;;21.30;68.50;;;;;;4971199;28;20070;-47
2022/06/09 10:29:23;;;;;;;5.93;2.50;;;21.30;68.40;;;;;;4953392;28;20380;-42
2022/06/09 10:32:26;;;;;;;5.32;2.47;;;21.10;67.30;;;;;;4970493;28;20467;-43
2022/06/09 10:35:13;;;;;;;4.65;2.13;;;21.00;68.80;;;;;;4970226;28;20086;-42
2022/06/09 10:37:58;;;;;;;4.40;2.15;;;21.30;69.60;;;;;;4953538;28;20050;-44
2022/06/09 10:40:44;;;;;;;4.93;2.00;;;21.20;67.60;;;;;;4971975;28;20026;-43
2022/06/09 10:43:46;;;;;;;3.20;1.58;;;21.60;67.50;;;;;;4944315;28;20035;-42
2022/06/09 10:46:31;;;;;;;3.05;1.42;;;21.10;68.50;;;;;;4963558;28;20043;-43
2022/06/09 10:55:31;;;;;;;6.95;1.30;;;20.20;68.50;;;;;;4995996;28;20060;-42
2022/06/09 10:58:28;;;;;;;7.18;1.48;;;19.90;69.10;;;;;;5034761;28;20330;-42
2022/06/09 11:00:56;;;;;;;3.95;1.67;;;19.90;71.30;;;;;;5022843;28;20048;-43
2022/06/09 11:03:43;;;;;;;6.28;1.60;;;20.20;71.70;;;;;;5030547;28;20040;-43
2022/06/09 11:06:09;;;;;;;4.93;1.58;;;20.20;70.00;;;;;;5028877;28;20622;-42
2022/06/09 11:09:06;;;;;;;4.28;1.52;;;20.40;70.00;;;;;;5029954;28;20025;-43
2022/06/09 11:12:07;;;;;;;4.25;0.95;;;20.90;69.20;;;;;;5042680;28;20047;-44
2022/06/09 11:14:54;;;;;;;3.35;1.30;;;20.50;69.20;;;;;;5048700;28;20038;-44
2022/06/09 11:17:47;;;;;;;5.50;1.20;;;20.50;69.30;;;;;;5030273;28;20033;-42
2022/06/09 11:20:44;;;;;;;2.85;1.45;;;20.70;68.60;;;;;;5031230;28;20094;-43
2022/06/09 11:23:52;;;;;;;4.07;1.20;;;20.40;67.80;;;;;;5030368;28;20025;-42
2022/06/09 11:26:55;;;;;;;3.17;1.30;;;20.20;69.50;;;;;;5027140;28;20049;-44
2022/06/09 11:29:58;;;;;;;2.95;1.10;;;20.20;69.60;;;;;;5011287;28;20033;-42
2022/06/09 11:33:01;;;;;;;5.65;1.10;;;19.90;70.30;;;;;;5029949;28;20033;-42
2022/06/09 11:35:42;;;;;;;6.20;1.45;;;19.80;70.30;;;;;;5029305;28;20354;-45
2022/06/09 11:38:47;;;;;;;4.47;1.30;;;19.40;71.20;;;;;;5029680;28;20033;-44
2022/06/09 11:41:49;;;;;;;2.90;0.88;;;19.30;70.00;;;;;;5042041;28;20036;-42
2022/06/09 11:44:18;;;;;;;4.82;1.10;;;20.20;70.40;;;;;;5026770;28;20338;-44
2022/06/09 11:46:49;;;;;;;3.92;0.80;;;20.90;67.40;;;;;;5049783;28;20048;-46
2022/06/09 11:49:19;;;;;;;2.92;1.20;;;20.90;66.90;;;;;;5038865;28;20021;-43
2022/06/09 11:51:47;;;;;;;4.28;1.95;;;20.60;68.70;;;;;;5036982;28;20044;-43
2022/06/09 11:54:43;;;;;;;4.28;0.90;;;20.80;68.20;;;;;;5028443;28;20044;-44
2022/06/09 11:57:34;;;;;;;4.45;1.23;;;20.70;66.40;;;;;;5028883;28;20043;-44
2022/06/09 12:00:18;;;;;;;3.78;1.00;;;20.80;66.00;;;;;;5011718;28;20029;-44
2022/06/09 12:03:26;;;;;;;6.43;1.50;;;21.20;67.50;;;;;;5011949;28;20021;-42
2022/06/09 12:05:58;;;;;;;5.80;1.20;;;21.40;65.60;;;;;;5035444;28;20333;-44
2022/06/09 12:08:51;;;;;;;6.40;1.73;;;21.20;65.60;;;;;;5048453;28;20021;-43
2022/06/09 12:11:23;;;;;;;7.15;2.35;;;21.50;68.60;;;;;;5031262;28;20044;-43
2022/06/09 12:14:00;;;;;;;7.05;1.45;;;21.10;65.60;;;;;;5029507;28;20065;-43
2022/06/09 12:16:38;;;;;;;4.18;1.33;;;20.40;67.20;;;;;;5028990;28;20029;-43
2022/06/09 12:19:28;;;;;;;9.23;2.00;;;19.90;70.60;;;;;;5011744;28;20033;-45
2022/06/09 12:22:01;;;;;;;6.68;1.83;;;19.90;72.30;;;;;;5029174;28;20449;-42
2022/06/09 12:24:30;;;;;;;3.75;1.52;;;20.40;71.00;;;;;;5029367;28;20044;-46
2022/06/09 12:27:21;;;;;;;6.03;2.13;;;20.50;69.20;;;;;;5029313;28;20033;-44
2022/06/09 12:30:04;;;;;;;5.97;1.85;;;20.20;72.00;;;;;;5028496;28;20037;-42
2022/06/09 12:33:17;;;;;;;5.28;1.50;;;20.20;70.80;;;;;;5028218;28;20077;-42
2022/06/09 12:35:55;;;;;;;11.43;3.63;;;20.40;70.90;;;;;;4985625;28;20065;-45
2022/06/09 12:38:41;;;;;;;8.32;2.15;;;20.70;70.60;;;;;;5012507;28;20154;-44
2022/06/09 12:41:29;;;;;;;6.55;2.55;;;20.80;69.70;;;;;;5034804;28;20029;-45
2022/06/09 12:44:26;;;;;;;5.03;1.75;;;20.80;69.90;;;;;;5043116;28;20105;-42
2022/06/09 12:47:12;;;;;;;8.15;2.30;;;20.90;69.10;;;;;;5044417;28;20036;-43
2022/06/09 12:49:42;;;;;;;4.93;1.30;;;20.50;69.60;;;;;;5030952;28;20028;-44
2022/06/09 12:52:26;;;;;;;10.82;2.92;;;20.60;68.80;;;;;;5028721;28;20025;-43
2022/06/09 12:55:00;;;;;;;6.75;1.42;;;20.80;70.50;;;;;;5031423;28;20503;-44
2022/06/09 12:57:31;;;;;;;7.18;2.17;;;20.90;70.20;;;;;;5041539;28;20048;-44
2022/06/09 13:00:12;;;;;;;7.32;2.35;;;20.50;68.60;;;;;;5048817;28;20029;-43
2022/06/09 13:02:40;;;;;;;8.18;1.95;;;20.40;69.80;;;;;;5012708;28;20049;-43
2022/06/09 13:05:24;;;;;;;11.35;3.00;;;20.10;72.30;;;;;;5028991;28;20033;-42
2022/06/09 13:08:17;;;;;;;10.13;2.42;;;19.80;72.20;;;;;;5032575;28;20072;-42
2022/06/09 13:10:53;;;;;;;6.47;2.63;;;20.00;72.10;;;;;;5028280;28;20105;-43
2022/06/09 13:13:29;;;;;;;7.07;1.90;;;20.10;71.40;;;;;;5042924;28;20080;-43
2022/06/09 13:16:06;;;;;;;9.05;2.58;;;20.30;72.60;;;;;;5028644;28;20377;-42
2022/06/09 13:19:01;;;;;;;7.60;2.35;;;20.50;71.20;;;;;;5028094;28;20057;-43
2022/06/09 13:21:40;;;;;;;8.50;1.92;;;20.40;71.00;;;;;;5038896;28;20413;-46
2022/06/09 13:24:26;;;;;;;9.20;2.45;;;20.40;70.30;;;;;;5042130;28;20032;-42
2022/06/09 13:26:53;;;;;;;6.70;2.17;;;20.30;72.00;;;;;;5043612;28;20048;-46
2022/06/09 13:29:39;;;;;;;5.03;1.48;;;20.40;72.40;;;;;;5039239;28;20339;-43
2022/06/09 13:32:22;;;;;;;6.50;1.70;;;20.50;68.50;;;;;;5018443;28;20036;-43
2022/06/09 13:34:52;;;;;;;9.95;2.58;;;20.20;69.60;;;;;;5020675;28;20069;-43
2022/06/09 13:37:45;;;;;;;10.38;2.55;;;20.30;71.60;;;;;;5032247;28;20053;-44